createdAt,value
2023-03-27T00:01:31.290Z,0.70
2023-03-27T00:04:34.650Z,0.82
2023-03-27T00:07:38.267Z,0.73
2023-03-27T00:10:40.957Z,0.70
2023-03-27T00:13:50.379Z,0.77
2023-03-27T00:16:54.209Z,0.80
2023-03-27T00:19:56.780Z,0.80
2023-03-27T00:22:59.211Z,0.65
2023-03-27T00:26:02.174Z,0.90
2023-03-27T00:29:04.844Z,0.63
2023-03-27T00:32:07.079Z,0.60
2023-03-27T00:35:09.765Z,0.60
2023-03-27T00:38:12.059Z,0.70
2023-03-27T00:41:14.533Z,0.85
2023-03-27T00:44:17.555Z,0.70
2023-03-27T00:47:19.907Z,0.70
2023-03-27T00:50:22.161Z,0.70
2023-03-27T00:53:24.852Z,0.70
2023-03-27T00:56:27.058Z,0.63
2023-03-27T00:59:30.109Z,0.80
2023-03-27T01:02:33.116Z,0.57
2023-03-27T01:05:36.312Z,0.80
2023-03-27T01:08:38.860Z,0.60
2023-03-27T01:11:41.240Z,0.68
2023-03-27T01:14:43.535Z,0.60
2023-03-27T01:17:46.418Z,0.93
2023-03-27T01:20:49.471Z,0.70
2023-03-27T01:23:59.488Z,0.70
2023-03-27T01:27:07.101Z,0.80
2023-03-27T01:30:09.784Z,0.60
2023-03-27T01:33:13.309Z,0.70
2023-03-27T01:36:16.422Z,0.60
2023-03-27T01:39:19.236Z,0.55
2023-03-27T01:42:22.455Z,0.65
2023-03-27T01:45:25.241Z,0.50
2023-03-27T01:48:28.652Z,0.70
2023-03-27T01:51:31.260Z,0.52
2023-03-27T01:54:34.085Z,0.63
2023-03-27T01:57:48.726Z,0.70
2023-03-27T02:00:53.094Z,0.65
2023-03-27T02:03:56.086Z,0.55
2023-03-27T02:06:58.125Z,0.70
2023-03-27T02:10:00.478Z,0.60
2023-03-27T02:13:03.899Z,0.90
2023-03-27T02:16:07.513Z,0.60
2023-03-27T02:19:09.934Z,0.60
2023-03-27T02:22:12.605Z,0.50
2023-03-27T02:25:22.718Z,0.70
2023-03-27T02:28:25.058Z,0.60
2023-03-27T02:31:34.016Z,0.80
2023-03-27T02:34:38.105Z,0.70
2023-03-27T02:37:43.305Z,0.43
2023-03-27T02:40:51.638Z,0.57
2023-03-27T02:44:12.771Z,0.68
2023-03-27T02:47:43.976Z,0.60
2023-03-27T02:50:46.514Z,0.70
2023-03-27T02:53:49.570Z,0.70
2023-03-27T02:56:53.052Z,0.82
2023-03-27T03:00:01.879Z,0.47
2023-03-27T03:03:08.348Z,0.60
2023-03-27T03:06:11.030Z,0.50
2023-03-27T03:09:13.817Z,0.50
2023-03-27T03:12:16.266Z,0.50
2023-03-27T03:15:20.548Z,0.47
2023-03-27T03:18:23.106Z,0.55
2023-03-27T03:21:26.145Z,0.50
2023-03-27T03:24:29.149Z,0.32
2023-03-27T03:27:32.974Z,0.50
2023-03-27T03:30:41.578Z,0.50
2023-03-27T03:33:46.701Z,0.63
2023-03-27T03:36:49.233Z,0.50
2023-03-27T03:39:56.793Z,0.40
2023-03-27T03:43:00.301Z,0.50
2023-03-27T03:46:05.615Z,0.50
2023-03-27T03:49:07.993Z,0.38
2023-03-27T03:52:10.675Z,0.60
2023-03-27T03:55:14.429Z,0.50
2023-03-27T03:58:17.370Z,0.40
2023-03-27T04:01:19.924Z,0.50
2023-03-27T04:04:26.168Z,0.38
2023-03-27T04:07:41.232Z,0.50
2023-03-27T04:11:03.793Z,0.40
2023-03-27T04:14:28.512Z,0.35
2023-03-27T04:17:34.125Z,0.35
2023-03-27T04:20:38.254Z,0.45
2023-03-27T04:23:44.754Z,0.50
2023-03-27T04:26:48.816Z,0.40
2023-03-27T04:30:01.286Z,0.60
2023-03-27T04:33:06.600Z,0.40
2023-03-27T04:36:28.941Z,0.38
2023-03-27T04:39:40.122Z,0.60
2023-03-27T04:42:42.894Z,0.50
2023-03-27T04:45:46.289Z,0.38
2023-03-27T04:48:49.518Z,0.35
2023-03-27T04:52:04.075Z,0.30
2023-03-27T04:55:07.523Z,0.30
2023-03-27T04:58:11.145Z,0.40
2023-03-27T05:01:14.670Z,0.30
2023-03-27T05:04:35.809Z,0.40
2023-03-27T05:07:48.675Z,0.47
2023-03-27T05:10:55.825Z,0.20
2023-03-27T05:13:59.252Z,0.20
2023-03-27T05:17:05.079Z,0.40
2023-03-27T05:20:08.089Z,0.50
2023-03-27T05:23:13.553Z,0.32
2023-03-27T05:26:16.870Z,0.50
2023-03-27T05:29:47.366Z,0.52
2023-03-27T05:32:52.337Z,0.60
2023-03-27T05:36:01.925Z,0.57
2023-03-27T05:39:04.450Z,0.40
2023-03-27T05:42:15.537Z,0.50
2023-03-27T05:45:18.770Z,0.50
2023-03-27T05:48:21.562Z,0.40
2023-03-27T05:51:24.363Z,0.40
2023-03-27T05:54:26.686Z,0.50
2023-03-27T05:57:44.498Z,0.40
2023-03-27T06:00:47.256Z,0.40
2023-03-27T06:03:54.553Z,0.50
2023-03-27T06:07:01.721Z,0.40
2023-03-27T06:10:05.457Z,0.50
2023-03-27T06:13:08.016Z,0.32
2023-03-27T06:16:24.417Z,0.40
2023-03-27T06:19:51.253Z,0.45
2023-03-27T06:22:54.212Z,0.30
2023-03-27T06:26:04.612Z,0.50
2023-03-27T06:29:08.302Z,0.50
2023-03-27T06:32:18.201Z,0.50
2023-03-27T06:35:26.387Z,0.60
2023-03-27T06:38:34.213Z,0.50
2023-03-27T06:41:36.803Z,0.60
2023-03-27T06:44:58.295Z,0.50
2023-03-27T06:48:27.342Z,0.40
2023-03-27T06:51:31.759Z,0.57
2023-03-27T06:54:34.197Z,0.57
2023-03-27T06:57:37.434Z,0.50
2023-03-27T07:00:40.694Z,0.60
2023-03-27T07:04:03.500Z,0.77
2023-03-27T07:07:24.908Z,0.75
2023-03-27T07:10:27.655Z,0.57
2023-03-27T07:13:35.869Z,0.60
2023-03-27T07:16:41.557Z,0.70
2023-03-27T07:19:44.643Z,0.60
2023-03-27T07:22:48.843Z,0.65
2023-03-27T07:26:12.432Z,0.60
2023-03-27T07:29:30.711Z,0.70
2023-03-27T07:32:37.787Z,0.73
2023-03-27T07:35:42.997Z,0.80
2023-03-27T07:39:04.990Z,0.50
2023-03-27T07:42:08.247Z,0.73
2023-03-27T07:45:31.509Z,0.50
2023-03-27T07:48:33.888Z,0.55
2023-03-27T07:51:36.316Z,0.60
2023-03-27T07:54:38.831Z,0.60
2023-03-27T07:57:58.134Z,0.60
2023-03-27T08:01:02.892Z,0.50
2023-03-27T08:04:07.324Z,0.50
2023-03-27T08:07:13.336Z,0.50
2023-03-27T08:10:17.675Z,0.40
2023-03-27T08:13:31.470Z,0.50
2023-03-27T08:16:37.179Z,0.52
2023-03-27T08:19:39.595Z,0.55
2023-03-27T08:22:42.758Z,0.70
2023-03-27T08:26:05.855Z,0.70
2023-03-27T08:29:17.109Z,0.65
2023-03-27T08:32:22.470Z,0.57
2023-03-27T08:35:28.558Z,0.47
2023-03-27T08:38:31.450Z,0.77
2023-03-27T08:42:00.321Z,0.60
2023-03-27T08:45:12.409Z,0.45
2023-03-27T08:48:21.600Z,0.60
2023-03-27T08:51:24.455Z,0.50
2023-03-27T08:54:27.440Z,0.50
2023-03-27T08:57:31.801Z,0.70
2023-03-27T09:00:42.573Z,0.50
2023-03-27T09:03:59.116Z,0.63
2023-03-27T09:07:03.275Z,0.50
2023-03-27T09:10:11.821Z,0.50
2023-03-27T09:13:19.638Z,0.57
2023-03-27T09:16:22.297Z,0.73
2023-03-27T09:19:29.525Z,0.63
2023-03-27T09:22:34.207Z,0.47
2023-03-27T09:25:46.161Z,0.60
2023-03-27T09:29:06.418Z,0.47
2023-03-27T09:32:14.254Z,0.43
2023-03-27T09:35:16.474Z,0.68
2023-03-27T09:38:20.085Z,0.50
2023-03-27T09:41:22.729Z,0.60
2023-03-27T09:44:26.263Z,0.60
2023-03-27T09:47:33.058Z,0.50
2023-03-27T09:50:38.935Z,0.70
2023-03-27T09:53:51.112Z,0.50
2023-03-27T09:56:55.853Z,0.50
2023-03-27T09:59:59.074Z,0.50
2023-03-27T10:03:03.000Z,0.40
2023-03-27T10:06:06.225Z,0.50
2023-03-27T10:09:23.164Z,0.50
2023-03-27T10:12:27.865Z,0.55
2023-03-27T10:15:31.265Z,0.40
2023-03-27T10:18:34.993Z,0.40
2023-03-27T10:21:44.244Z,0.70
2023-03-27T10:24:54.349Z,0.63
2023-03-27T10:28:19.673Z,0.50
2023-03-27T10:31:48.280Z,0.60
2023-03-27T10:35:11.536Z,0.50
2023-03-27T10:38:40.808Z,0.60
2023-03-27T10:41:58.687Z,0.50
2023-03-27T10:45:02.106Z,0.60
2023-03-27T10:48:05.278Z,0.52
2023-03-27T10:51:10.134Z,0.60
2023-03-27T10:54:31.330Z,0.43
2023-03-27T10:57:34.781Z,0.50
2023-03-27T11:00:37.417Z,0.57
2023-03-27T11:03:40.137Z,0.47
2023-03-27T11:06:44.047Z,0.40
2023-03-27T11:09:49.263Z,0.30
2023-03-27T11:12:51.957Z,0.40
2023-03-27T11:15:55.349Z,0.40
2023-03-27T11:19:18.675Z,0.60
2023-03-27T11:22:39.860Z,0.47
2023-03-27T11:25:45.744Z,0.60
2023-03-27T11:28:53.027Z,0.50
2023-03-27T11:31:57.815Z,0.50
2023-03-27T11:35:24.244Z,0.50
2023-03-27T11:38:55.640Z,0.50
2023-03-27T11:41:58.361Z,0.60
2023-03-27T11:45:01.101Z,0.70
2023-03-27T11:48:13.556Z,0.60
2023-03-27T11:51:21.824Z,0.80
2023-03-27T11:54:24.844Z,0.50
2023-03-27T11:57:35.130Z,0.55
2023-03-27T12:00:43.189Z,0.50
2023-03-27T12:03:45.790Z,0.50
2023-03-27T12:06:58.126Z,0.50
2023-03-27T12:10:10.536Z,0.52
2023-03-27T12:13:41.978Z,0.57
2023-03-27T12:16:56.740Z,0.68
2023-03-27T12:20:03.433Z,0.60
2023-03-27T12:23:06.740Z,0.63
2023-03-27T12:26:33.398Z,0.57
2023-03-27T12:30:05.217Z,0.60
2023-03-27T12:33:08.634Z,0.50
2023-03-27T12:36:11.033Z,0.40
2023-03-27T12:39:15.023Z,0.60
2023-03-27T12:42:17.888Z,0.63
2023-03-27T12:45:22.440Z,0.68
2023-03-27T12:48:28.603Z,0.57
2023-03-27T12:51:31.862Z,0.60
2023-03-27T12:54:34.640Z,0.80
2023-03-27T12:57:57.011Z,0.50
2023-03-27T13:01:19.711Z,0.50
2023-03-27T13:04:30.473Z,0.57
2023-03-27T13:07:35.068Z,0.60
2023-03-27T13:10:52.014Z,0.70
2023-03-27T13:13:54.853Z,0.60
2023-03-27T13:16:57.536Z,0.60
2023-03-27T13:20:03.507Z,0.70
2023-03-27T13:23:06.311Z,0.70
2023-03-27T13:26:11.606Z,0.50
2023-03-27T13:29:17.703Z,0.50
2023-03-27T13:32:24.208Z,0.75
2023-03-27T13:35:40.783Z,0.65
2023-03-27T13:38:44.614Z,0.60
2023-03-27T13:41:47.092Z,0.60
2023-03-27T13:44:58.927Z,0.47
2023-03-27T13:51:11.857Z,0.50
2023-03-27T13:54:15.057Z,0.57
2023-03-27T13:57:21.710Z,0.68
2023-03-27T14:00:35.984Z,0.50
2023-03-27T14:03:47.783Z,0.60
2023-03-27T14:06:51.341Z,0.50
2023-03-27T14:09:53.750Z,0.60
2023-03-27T14:13:03.589Z,0.57
2023-03-27T14:16:19.105Z,0.50
2023-03-27T14:19:27.395Z,0.52
2023-03-27T14:22:31.200Z,0.50
2023-03-27T14:25:33.527Z,0.50
2023-03-27T14:28:52.782Z,0.50
2023-03-27T14:32:05.630Z,0.50
2023-03-27T14:35:09.887Z,0.52
2023-03-27T14:38:16.555Z,0.65
2023-03-27T14:41:20.065Z,0.50
2023-03-27T14:44:29.834Z,0.50
2023-03-27T14:47:34.312Z,0.65
2023-03-27T14:50:37.221Z,0.70
2023-03-27T14:53:39.826Z,0.60
2023-03-27T14:57:14.375Z,0.70
2023-03-27T15:00:30.913Z,0.70
2023-03-27T15:03:34.505Z,0.60
2023-03-27T15:06:38.271Z,0.70
2023-03-27T15:09:42.831Z,0.55
2023-03-27T15:13:03.725Z,0.40
2023-03-27T15:16:06.684Z,0.60
2023-03-27T15:19:09.798Z,0.95
2023-03-27T15:22:12.331Z,0.50
2023-03-27T15:25:15.277Z,0.65
2023-03-27T15:28:17.947Z,0.75
2023-03-27T15:31:20.876Z,0.70
2023-03-27T15:34:23.789Z,0.43
2023-03-27T15:37:26.030Z,0.52
2023-03-27T15:40:28.929Z,0.60
2023-03-27T15:43:32.777Z,0.45
2023-03-27T15:46:35.609Z,0.60
2023-03-27T15:49:38.529Z,0.57
2023-03-27T15:52:41.208Z,0.40
2023-03-27T15:55:44.374Z,0.55
2023-03-27T15:58:47.272Z,0.60
2023-03-27T16:01:50.102Z,0.65
2023-03-27T16:04:52.960Z,0.47
2023-03-27T16:07:57.091Z,0.63
2023-03-27T16:11:00.918Z,0.50
2023-03-27T16:14:04.206Z,0.50
2023-03-27T16:17:07.211Z,0.52
2023-03-27T16:20:09.736Z,0.60
2023-03-27T16:23:13.318Z,0.60
2023-03-27T16:26:16.408Z,0.50
2023-03-27T16:29:19.464Z,0.70
2023-03-27T16:32:21.751Z,0.65
2023-03-27T16:35:24.058Z,0.88
2023-03-27T16:38:26.212Z,0.90
2023-03-27T16:41:29.502Z,0.57
2023-03-27T16:44:33.287Z,0.60
2023-03-27T16:47:36.288Z,0.60
2023-03-27T16:50:39.964Z,0.68
2023-03-27T16:53:43.465Z,0.57
2023-03-27T16:56:46.301Z,0.60
2023-03-27T16:59:49.423Z,0.60
2023-03-27T17:02:52.422Z,0.55
2023-03-27T17:05:56.191Z,0.63
2023-03-27T17:08:58.900Z,0.55
2023-03-27T17:12:01.665Z,0.60
2023-03-27T17:15:04.342Z,0.60
2023-03-27T17:18:07.207Z,0.75
2023-03-27T17:21:10.385Z,0.50
2023-03-27T17:24:13.170Z,0.60
2023-03-27T17:27:15.569Z,0.75
2023-03-27T17:30:30.613Z,0.85
2023-03-27T17:33:37.595Z,0.68
2023-03-27T17:36:45.252Z,0.77
2023-03-27T17:39:55.621Z,0.88
2023-03-27T17:42:58.713Z,0.50
2023-03-27T17:46:01.780Z,0.75
2023-03-27T17:49:05.019Z,0.52
2023-03-27T17:52:08.353Z,0.57
2023-03-27T17:55:13.063Z,0.60
2023-03-27T17:58:15.631Z,0.50
2023-03-27T18:01:18.851Z,0.90
2023-03-27T18:04:21.670Z,0.80
2023-03-27T18:07:24.308Z,0.75
2023-03-27T18:10:27.537Z,0.60
2023-03-27T18:13:30.498Z,0.60
2023-03-27T18:16:33.695Z,0.70
2023-03-27T18:19:36.931Z,0.70
2023-03-27T18:22:39.744Z,0.68
2023-03-27T18:25:43.148Z,0.50
2023-03-27T18:28:46.638Z,0.60
2023-03-27T18:31:49.511Z,0.80
2023-03-27T18:34:52.486Z,0.73
2023-03-27T18:37:55.856Z,0.50
2023-03-27T18:40:59.082Z,0.70
2023-03-27T18:44:02.161Z,0.50
2023-03-27T18:47:05.309Z,0.80
2023-03-27T18:50:08.825Z,0.50
2023-03-27T18:53:11.918Z,0.73
2023-03-27T18:56:15.181Z,0.70
2023-03-27T18:59:17.512Z,0.55
2023-03-27T19:02:20.022Z,0.70
2023-03-27T19:05:22.569Z,0.60
2023-03-27T19:08:25.289Z,0.68
2023-03-27T19:11:28.153Z,0.70
2023-03-27T19:14:53.767Z,0.60
2023-03-27T19:18:21.840Z,0.70
2023-03-27T19:21:24.864Z,0.50
2023-03-27T19:24:38.230Z,0.60
2023-03-27T19:27:40.770Z,0.80
2023-03-27T19:30:44.124Z,0.57
2023-03-27T19:33:47.199Z,0.63
2023-03-27T19:36:52.034Z,0.57
2023-03-27T19:39:54.886Z,0.75
2023-03-27T19:42:58.050Z,0.80
2023-03-27T19:46:14.749Z,0.80
2023-03-27T19:49:18.073Z,1.05
2023-03-27T19:52:46.044Z,0.63
2023-03-27T19:55:52.550Z,0.75
2023-03-27T19:58:55.249Z,0.90
2023-03-27T20:01:58.043Z,0.82
2023-03-27T20:05:01.698Z,0.75
2023-03-27T20:08:04.598Z,1.00
2023-03-27T20:11:08.214Z,0.75
2023-03-27T20:14:11.217Z,0.70
2023-03-27T20:20:21.140Z,0.90
2023-03-27T20:23:24.235Z,1.08
2023-03-27T20:26:28.532Z,1.00
2023-03-27T20:29:39.101Z,0.70
2023-03-27T20:32:42.104Z,0.95
2023-03-27T20:35:44.410Z,0.82
2023-03-27T20:38:46.686Z,0.90
2023-03-27T20:41:49.022Z,1.00
2023-03-27T20:44:51.667Z,1.10
2023-03-27T20:47:54.426Z,1.02
2023-03-27T20:50:57.812Z,1.00
2023-03-27T20:54:01.247Z,0.80
2023-03-27T20:57:03.661Z,0.98
2023-03-27T21:00:06.752Z,0.80
2023-03-27T21:03:09.630Z,0.90
2023-03-27T21:06:13.292Z,1.02
2023-03-27T21:09:15.962Z,0.98
2023-03-27T21:12:18.958Z,0.90
2023-03-27T21:15:21.542Z,1.00
2023-03-27T21:18:24.558Z,0.90
2023-03-27T21:21:26.780Z,0.90
2023-03-27T21:24:29.317Z,1.00
2023-03-27T21:27:31.944Z,1.05
2023-03-27T21:30:47.294Z,1.00
2023-03-27T21:33:50.861Z,1.00
2023-03-27T21:36:54.320Z,1.10
2023-03-27T21:39:57.095Z,0.95
2023-03-27T21:43:00.577Z,1.30
2023-03-27T21:46:04.187Z,0.98
2023-03-27T21:49:06.678Z,1.20
2023-03-27T21:52:09.743Z,0.93
2023-03-27T21:55:13.303Z,1.30
2023-03-27T21:58:16.176Z,0.90
2023-03-27T22:01:19.230Z,1.13
2023-03-27T22:04:22.906Z,1.10
2023-03-27T22:07:25.707Z,0.93
2023-03-27T22:10:28.221Z,1.02
2023-03-27T22:13:30.728Z,0.80
2023-03-27T22:16:33.689Z,0.88
2023-03-27T22:19:36.691Z,0.80
2023-03-27T22:22:39.775Z,0.80
2023-03-27T22:25:43.441Z,0.90
2023-03-27T22:28:47.019Z,0.80
2023-03-27T22:31:49.880Z,1.00
2023-03-27T22:34:52.179Z,0.90
2023-03-27T22:37:54.898Z,0.95
2023-03-27T22:40:57.624Z,0.95
2023-03-27T22:44:00.264Z,0.80
2023-03-27T22:47:02.998Z,0.88
2023-03-27T22:50:05.739Z,0.77
2023-03-27T22:53:08.443Z,1.00
2023-03-27T22:56:10.912Z,1.10
2023-03-27T22:59:13.443Z,0.90
2023-03-27T23:02:16.155Z,1.00
2023-03-27T23:05:19.176Z,1.00
2023-03-27T23:08:21.787Z,0.80
2023-03-27T23:11:25.280Z,0.90
2023-03-27T23:14:28.318Z,0.98
2023-03-27T23:17:31.121Z,0.82
2023-03-27T23:20:34.066Z,0.82
2023-03-27T23:23:37.152Z,1.30
2023-03-27T23:26:40.228Z,1.00
2023-03-27T23:29:42.921Z,0.65
2023-03-27T23:32:46.080Z,1.00
2023-03-27T23:35:49.658Z,0.80
2023-03-27T23:38:52.158Z,1.00
2023-03-27T23:41:55.082Z,0.80
2023-03-27T23:44:58.092Z,0.85
2023-03-27T23:48:01.508Z,1.20
2023-03-27T23:51:04.462Z,0.90
2023-03-27T23:54:06.934Z,0.80
2023-03-27T23:57:10.068Z,0.88
